sensor_id;sensor_type;location;lat;lon;timestamp;P1;durP1;ratioP1;P2;durP2;ratioP2
23346;SDS011;36852;45.466;11.066;2022-11-15T00:00:30;16.07;;;11.25;;
23346;SDS011;36852;45.466;11.066;2022-11-15T00:03:18;14.63;;;10.65;;
23346;SDS011;36852;45.466;11.066;2022-11-15T00:09:18;15.05;;;11.25;;
23346;SDS011;36852;45.466;11.066;2022-11-15T00:12:06;16.20;;;10.45;;
23346;SDS011;36852;45.466;11.066;2022-11-15T00:14:52;21.87;;;11.22;;
23346;SDS011;36852;45.466;11.066;2022-11-15T00:17:47;13.95;;;10.30;;
23346;SDS011;36852;45.466;11.066;2022-11-15T00:20:36;13.75;;;10.08;;
23346;SDS011;36852;45.466;11.066;2022-11-15T00:23:23;20.95;;;11.05;;
23346;SDS011;36852;45.466;11.066;2022-11-15T00:29:04;27.67;;;12.60;;
23346;SDS011;36852;45.466;11.066;2022-11-15T00:31:50;19.20;;;10.93;;
23346;SDS011;36852;45.466;11.066;2022-11-15T00:34:38;14.28;;;8.90;;
23346;SDS011;36852;45.466;11.066;2022-11-15T00:37:24;15.55;;;10.05;;
23346;SDS011;36852;45.466;11.066;2022-11-15T00:40:14;14.10;;;9.75;;
23346;SDS011;36852;45.466;11.066;2022-11-15T00:43:01;13.90;;;9.80;;
23346;SDS011;36852;45.466;11.066;2022-11-15T00:45:47;14.00;;;8.63;;
23346;SDS011;36852;45.466;11.066;2022-11-15T00:48:33;14.58;;;9.30;;
23346;SDS011;36852;45.466;11.066;2022-11-15T00:51:19;12.35;;;9.25;;
23346;SDS011;36852;45.466;11.066;2022-11-15T00:54:05;12.93;;;8.28;;
23346;SDS011;36852;45.466;11.066;2022-11-15T00:57:13;9.73;;;7.33;;
23346;SDS011;36852;45.466;11.066;2022-11-15T01:00:02;11.65;;;8.65;;
23346;SDS011;36852;45.466;11.066;2022-11-15T01:02:49;12.75;;;8.25;;
23346;SDS011;36852;45.466;11.066;2022-11-15T01:05:36;11.00;;;7.95;;
23346;SDS011;36852;45.466;11.066;2022-11-15T01:08:26;11.28;;;7.80;;
23346;SDS011;36852;45.466;11.066;2022-11-15T01:11:13;11.20;;;7.80;;
23346;SDS011;36852;45.466;11.066;2022-11-15T01:13:59;11.95;;;8.03;;
23346;SDS011;36852;45.466;11.066;2022-11-15T01:16:44;10.60;;;7.60;;
23346;SDS011;36852;45.466;11.066;2022-11-15T01:19:31;10.13;;;7.70;;
23346;SDS011;36852;45.466;11.066;2022-11-15T01:22:18;10.72;;;7.78;;
23346;SDS011;36852;45.466;11.066;2022-11-15T01:25:04;10.80;;;8.23;;
23346;SDS011;36852;45.466;11.066;2022-11-15T01:27:51;11.83;;;8.00;;
23346;SDS011;36852;45.466;11.066;2022-11-15T01:30:36;11.60;;;8.45;;
23346;SDS011;36852;45.466;11.066;2022-11-15T01:33:27;9.83;;;7.30;;
23346;SDS011;36852;45.466;11.066;2022-11-15T01:36:17;9.65;;;7.55;;
23346;SDS011;36852;45.466;11.066;2022-11-15T01:39:06;10.18;;;7.50;;
23346;SDS011;36852;45.466;11.066;2022-11-15T01:44:53;12.33;;;8.03;;
23346;SDS011;36852;45.466;11.066;2022-11-15T01:47:43;10.95;;;8.13;;
23346;SDS011;36852;45.466;11.066;2022-11-15T01:50:31;10.60;;;7.22;;
23346;SDS011;36852;45.466;11.066;2022-11-15T01:53:19;12.90;;;8.90;;
23346;SDS011;36852;45.466;11.066;2022-11-15T01:56:10;11.70;;;7.78;;
23346;SDS011;36852;45.466;11.066;2022-11-15T01:58:58;13.13;;;7.85;;
23346;SDS011;36852;45.466;11.066;2022-11-15T02:01:48;10.32;;;7.58;;
23346;SDS011;36852;45.466;11.066;2022-11-15T02:04:42;10.08;;;7.33;;
23346;SDS011;36852;45.466;11.066;2022-11-15T02:10:35;7.77;;;5.80;;
23346;SDS011;36852;45.466;11.066;2022-11-15T02:37:34;7.85;;;6.25;;
23346;SDS011;36852;45.466;11.066;2022-11-15T02:43:38;9.80;;;6.40;;
23346;SDS011;36852;45.466;11.066;2022-11-15T02:46:43;8.25;;;6.00;;
23346;SDS011;36852;45.466;11.066;2022-11-15T02:53:14;6.08;;;4.87;;
23346;SDS011;36852;45.466;11.066;2022-11-15T02:56:02;7.97;;;5.40;;
23346;SDS011;36852;45.466;11.066;2022-11-15T02:58:53;7.90;;;5.67;;
23346;SDS011;36852;45.466;11.066;2022-11-15T03:11:08;8.50;;;5.42;;
23346;SDS011;36852;45.466;11.066;2022-11-15T03:13:58;9.45;;;6.90;;
23346;SDS011;36852;45.466;11.066;2022-11-15T03:19:47;9.73;;;5.85;;
23346;SDS011;36852;45.466;11.066;2022-11-15T03:22:40;8.60;;;5.97;;
23346;SDS011;36852;45.466;11.066;2022-11-15T03:25:25;8.18;;;5.75;;
23346;SDS011;36852;45.466;11.066;2022-11-15T03:28:16;9.53;;;6.58;;
23346;SDS011;36852;45.466;11.066;2022-11-15T03:31:05;8.33;;;5.83;;
23346;SDS011;36852;45.466;11.066;2022-11-15T03:34:15;8.55;;;6.12;;
23346;SDS011;36852;45.466;11.066;2022-11-15T03:37:02;8.38;;;6.00;;
23346;SDS011;36852;45.466;11.066;2022-11-15T03:39:53;7.20;;;5.78;;
23346;SDS011;36852;45.466;11.066;2022-11-15T03:42:44;9.75;;;5.87;;
23346;SDS011;36852;45.466;11.066;2022-11-15T03:45:34;8.00;;;5.17;;
23346;SDS011;36852;45.466;11.066;2022-11-15T03:48:33;6.40;;;4.53;;
23346;SDS011;36852;45.466;11.066;2022-11-15T03:51:21;8.15;;;4.37;;
23346;SDS011;36852;45.466;11.066;2022-11-15T03:54:07;11.57;;;5.00;;
23346;SDS011;36852;45.466;11.066;2022-11-15T03:56:54;8.90;;;5.20;;
23346;SDS011;36852;45.466;11.066;2022-11-15T03:59:42;8.95;;;4.37;;
23346;SDS011;36852;45.466;11.066;2022-11-15T04:02:29;5.85;;;4.45;;
23346;SDS011;36852;45.466;11.066;2022-11-15T04:05:17;6.53;;;4.22;;
23346;SDS011;36852;45.466;11.066;2022-11-15T04:08:03;8.25;;;5.03;;
23346;SDS011;36852;45.466;11.066;2022-11-15T04:10:50;7.20;;;4.92;;
23346;SDS011;36852;45.466;11.066;2022-11-15T04:13:37;5.30;;;3.92;;
23346;SDS011;36852;45.466;11.066;2022-11-15T04:16:26;5.92;;;4.25;;
23346;SDS011;36852;45.466;11.066;2022-11-15T04:19:12;5.53;;;4.33;;
23346;SDS011;36852;45.466;11.066;2022-11-15T04:22:17;5.72;;;4.22;;
23346;SDS011;36852;45.466;11.066;2022-11-15T04:25:21;6.97;;;5.17;;
23346;SDS011;36852;45.466;11.066;2022-11-15T04:28:10;5.53;;;4.28;;
23346;SDS011;36852;45.466;11.066;2022-11-15T04:30:58;6.58;;;4.97;;
23346;SDS011;36852;45.466;11.066;2022-11-15T04:33:45;8.88;;;4.97;;
23346;SDS011;36852;45.466;11.066;2022-11-15T04:36:31;9.03;;;4.80;;
23346;SDS011;36852;45.466;11.066;2022-11-15T04:42:43;6.72;;;5.20;;
23346;SDS011;36852;45.466;11.066;2022-11-15T04:48:30;7.67;;;5.78;;
23346;SDS011;36852;45.466;11.066;2022-11-15T04:51:17;7.15;;;5.60;;
23346;SDS011;36852;45.466;11.066;2022-11-15T04:54:04;10.03;;;5.60;;
23346;SDS011;36852;45.466;11.066;2022-11-15T04:56:50;6.97;;;4.92;;
23346;SDS011;36852;45.466;11.066;2022-11-15T05:02:37;8.03;;;5.47;;
23346;SDS011;36852;45.466;11.066;2022-11-15T05:08:54;5.95;;;4.62;;
23346;SDS011;36852;45.466;11.066;2022-11-15T05:11:40;8.45;;;5.15;;
23346;SDS011;36852;45.466;11.066;2022-11-15T05:14:26;6.70;;;5.15;;
23346;SDS011;36852;45.466;11.066;2022-11-15T05:17:13;6.67;;;5.20;;
23346;SDS011;36852;45.466;11.066;2022-11-15T05:19:59;7.53;;;4.90;;
23346;SDS011;36852;45.466;11.066;2022-11-15T05:22:46;12.65;;;4.87;;
23346;SDS011;36852;45.466;11.066;2022-11-15T05:25:32;8.55;;;4.50;;
23346;SDS011;36852;45.466;11.066;2022-11-15T05:28:19;6.50;;;4.72;;
23346;SDS011;36852;45.466;11.066;2022-11-15T05:31:09;11.78;;;5.37;;
23346;SDS011;36852;45.466;11.066;2022-11-15T05:33:57;8.83;;;5.12;;
23346;SDS011;36852;45.466;11.066;2022-11-15T05:36:45;6.08;;;4.90;;
23346;SDS011;36852;45.466;11.066;2022-11-15T05:39:32;9.90;;;4.62;;
23346;SDS011;36852;45.466;11.066;2022-11-15T05:42:25;8.25;;;4.60;;
23346;SDS011;36852;45.466;11.066;2022-11-15T05:45:12;9.70;;;5.28;;
23346;SDS011;36852;45.466;11.066;2022-11-15T05:47:59;11.45;;;4.95;;
23346;SDS011;36852;45.466;11.066;2022-11-15T05:50:47;10.23;;;6.47;;
23346;SDS011;36852;45.466;11.066;2022-11-15T05:53:34;12.00;;;7.97;;
23346;SDS011;36852;45.466;11.066;2022-11-15T05:56:23;11.50;;;6.65;;
23346;SDS011;36852;45.466;11.066;2022-11-15T05:59:11;8.03;;;6.28;;
23346;SDS011;36852;45.466;11.066;2022-11-15T06:01:58;16.35;;;7.45;;
23346;SDS011;36852;45.466;11.066;2022-11-15T06:04:45;10.40;;;7.35;;
23346;SDS011;36852;45.466;11.066;2022-11-15T06:07:32;12.00;;;7.42;;
23346;SDS011;36852;45.466;11.066;2022-11-15T06:10:19;11.05;;;8.10;;
23346;SDS011;36852;45.466;11.066;2022-11-15T06:13:05;13.50;;;7.83;;
23346;SDS011;36852;45.466;11.066;2022-11-15T06:15:55;19.25;;;10.35;;
23346;SDS011;36852;45.466;11.066;2022-11-15T06:18:43;22.32;;;11.60;;
23346;SDS011;36852;45.466;11.066;2022-11-15T06:21:31;18.95;;;12.53;;
23346;SDS011;36852;45.466;11.066;2022-11-15T06:24:17;18.70;;;12.35;;
23346;SDS011;36852;45.466;11.066;2022-11-15T06:27:07;18.98;;;13.50;;
23346;SDS011;36852;45.466;11.066;2022-11-15T06:29:56;18.65;;;12.28;;
23346;SDS011;36852;45.466;11.066;2022-11-15T06:32:42;24.85;;;13.95;;
23346;SDS011;36852;45.466;11.066;2022-11-15T06:35:29;20.92;;;12.95;;
23346;SDS011;36852;45.466;11.066;2022-11-15T06:38:18;20.77;;;12.98;;
23346;SDS011;36852;45.466;11.066;2022-11-15T06:41:05;19.95;;;10.98;;
23346;SDS011;36852;45.466;11.066;2022-11-15T06:43:54;25.52;;;13.60;;
23346;SDS011;36852;45.466;11.066;2022-11-15T06:46:40;29.67;;;14.47;;
23346;SDS011;36852;45.466;11.066;2022-11-15T06:49:29;23.15;;;14.58;;
23346;SDS011;36852;45.466;11.066;2022-11-15T06:52:16;21.73;;;13.58;;
23346;SDS011;36852;45.466;11.066;2022-11-15T06:55:07;23.90;;;12.10;;
23346;SDS011;36852;45.466;11.066;2022-11-15T06:57:57;22.25;;;11.80;;
23346;SDS011;36852;45.466;11.066;2022-11-15T07:00:44;23.67;;;12.35;;
23346;SDS011;36852;45.466;11.066;2022-11-15T07:03:30;21.30;;;12.68;;
23346;SDS011;36852;45.466;11.066;2022-11-15T07:06:17;27.95;;;14.25;;
23346;SDS011;36852;45.466;11.066;2022-11-15T07:09:04;23.32;;;14.63;;
23346;SDS011;36852;45.466;11.066;2022-11-15T07:11:51;37.42;;;20.80;;
23346;SDS011;36852;45.466;11.066;2022-11-15T07:14:37;29.15;;;17.57;;
23346;SDS011;36852;45.466;11.066;2022-11-15T07:17:23;14.75;;;10.40;;
23346;SDS011;36852;45.466;11.066;2022-11-15T07:20:13;15.68;;;10.13;;
23346;SDS011;36852;45.466;11.066;2022-11-15T07:23:01;12.47;;;8.83;;
23346;SDS011;36852;45.466;11.066;2022-11-15T07:25:48;11.93;;;8.23;;
23346;SDS011;36852;45.466;11.066;2022-11-15T07:28:35;10.00;;;7.03;;
23346;SDS011;36852;45.466;11.066;2022-11-15T07:31:22;11.95;;;8.50;;
23346;SDS011;36852;45.466;11.066;2022-11-15T07:34:08;17.07;;;8.80;;
23346;SDS011;36852;45.466;11.066;2022-11-15T07:36:58;11.00;;;8.70;;
23346;SDS011;36852;45.466;11.066;2022-11-15T07:39:46;12.82;;;8.18;;
23346;SDS011;36852;45.466;11.066;2022-11-15T07:42:32;12.63;;;8.30;;
23346;SDS011;36852;45.466;11.066;2022-11-15T07:45:41;10.00;;;8.03;;
23346;SDS011;36852;45.466;11.066;2022-11-15T07:48:28;13.53;;;8.90;;
23346;SDS011;36852;45.466;11.066;2022-11-15T07:51:17;12.37;;;8.95;;
23346;SDS011;36852;45.466;11.066;2022-11-15T07:54:03;15.13;;;9.28;;
23346;SDS011;36852;45.466;11.066;2022-11-15T07:56:51;12.58;;;9.70;;
23346;SDS011;36852;45.466;11.066;2022-11-15T07:59:36;13.60;;;9.98;;
23346;SDS011;36852;45.466;11.066;2022-11-15T08:02:22;13.60;;;9.60;;
23346;SDS011;36852;45.466;11.066;2022-11-15T08:05:11;25.68;;;14.65;;
23346;SDS011;36852;45.466;11.066;2022-11-15T08:07:59;16.37;;;11.57;;
23346;SDS011;36852;45.466;11.066;2022-11-15T08:10:45;19.12;;;11.83;;
23346;SDS011;36852;45.466;11.066;2022-11-15T08:13:31;19.67;;;12.15;;
23346;SDS011;36852;45.466;11.066;2022-11-15T08:16:17;17.98;;;11.68;;
23346;SDS011;36852;45.466;11.066;2022-11-15T08:19:05;21.25;;;12.13;;
23346;SDS011;36852;45.466;11.066;2022-11-15T08:21:51;19.20;;;13.03;;
23346;SDS011;36852;45.466;11.066;2022-11-15T08:24:37;18.05;;;12.73;;
23346;SDS011;36852;45.466;11.066;2022-11-15T08:27:23;20.60;;;12.73;;
23346;SDS011;36852;45.466;11.066;2022-11-15T08:30:10;18.80;;;12.35;;
23346;SDS011;36852;45.466;11.066;2022-11-15T08:32:59;19.48;;;13.40;;
23346;SDS011;36852;45.466;11.066;2022-11-15T08:35:46;22.00;;;13.90;;
23346;SDS011;36852;45.466;11.066;2022-11-15T08:38:32;24.77;;;14.10;;
23346;SDS011;36852;45.466;11.066;2022-11-15T08:41:23;23.75;;;15.13;;
23346;SDS011;36852;45.466;11.066;2022-11-15T08:44:11;23.77;;;14.35;;
23346;SDS011;36852;45.466;11.066;2022-11-15T08:46:58;21.00;;;13.30;;
23346;SDS011;36852;45.466;11.066;2022-11-15T08:49:47;22.52;;;14.83;;
23346;SDS011;36852;45.466;11.066;2022-11-15T08:52:33;20.68;;;14.95;;
23346;SDS011;36852;45.466;11.066;2022-11-15T08:55:19;25.60;;;14.78;;
23346;SDS011;36852;45.466;11.066;2022-11-15T08:58:08;18.57;;;13.70;;
23346;SDS011;36852;45.466;11.066;2022-11-15T09:00:54;24.70;;;14.47;;
23346;SDS011;36852;45.466;11.066;2022-11-15T09:03:41;19.85;;;13.83;;
23346;SDS011;36852;45.466;11.066;2022-11-15T09:06:27;21.93;;;14.78;;
23346;SDS011;36852;45.466;11.066;2022-11-15T09:09:14;24.50;;;14.60;;
23346;SDS011;36852;45.466;11.066;2022-11-15T09:12:00;25.82;;;14.68;;
23346;SDS011;36852;45.466;11.066;2022-11-15T09:14:47;24.10;;;15.20;;
23346;SDS011;36852;45.466;11.066;2022-11-15T09:17:38;23.02;;;15.13;;
23346;SDS011;36852;45.466;11.066;2022-11-15T09:20:24;24.55;;;16.05;;
23346;SDS011;36852;45.466;11.066;2022-11-15T09:23:11;20.27;;;14.80;;
23346;SDS011;36852;45.466;11.066;2022-11-15T09:26:03;21.15;;;14.98;;
23346;SDS011;36852;45.466;11.066;2022-11-15T09:28:46;22.10;;;14.58;;
23346;SDS011;36852;45.466;11.066;2022-11-15T09:31:33;21.77;;;14.20;;
23346;SDS011;36852;45.466;11.066;2022-11-15T09:34:19;20.52;;;13.32;;
23346;SDS011;36852;45.466;11.066;2022-11-15T09:37:08;24.43;;;13.65;;
23346;SDS011;36852;45.466;11.066;2022-11-15T09:39:55;19.25;;;12.95;;
23346;SDS011;36852;45.466;11.066;2022-11-15T09:45:46;21.42;;;13.80;;
23346;SDS011;36852;45.466;11.066;2022-11-15T09:51:24;21.60;;;13.18;;
23346;SDS011;36852;45.466;11.066;2022-11-15T09:56:39;17.17;;;12.10;;
23346;SDS011;36852;45.466;11.066;2022-11-15T10:05:11;17.50;;;11.93;;
23346;SDS011;36852;45.466;11.066;2022-11-15T10:12:47;20.85;;;12.05;;
23346;SDS011;36852;45.466;11.066;2022-11-15T10:15:25;36.83;;;13.18;;
23346;SDS011;36852;45.466;11.066;2022-11-15T10:18:05;19.50;;;13.30;;
23346;SDS011;36852;45.466;11.066;2022-11-15T10:20:54;18.73;;;12.82;;
23346;SDS011;36852;45.466;11.066;2022-11-15T10:23:24;17.92;;;12.65;;
23346;SDS011;36852;45.466;11.066;2022-11-15T10:28:44;20.37;;;13.30;;
23346;SDS011;36852;45.466;11.066;2022-11-15T10:31:22;17.70;;;13.98;;
23346;SDS011;36852;45.466;11.066;2022-11-15T10:34:16;19.25;;;13.50;;
23346;SDS011;36852;45.466;11.066;2022-11-15T10:36:59;17.17;;;13.20;;
23346;SDS011;36852;45.466;11.066;2022-11-15T10:39:26;19.67;;;13.10;;
23346;SDS011;36852;45.466;11.066;2022-11-15T10:41:56;20.70;;;14.25;;
23346;SDS011;36852;45.466;11.066;2022-11-15T10:44:30;21.20;;;14.03;;
23346;SDS011;36852;45.466;11.066;2022-11-15T10:49:31;17.57;;;12.58;;
23346;SDS011;36852;45.466;11.066;2022-11-15T10:54:44;17.62;;;14.13;;
23346;SDS011;36852;45.466;11.066;2022-11-15T10:57:17;19.27;;;13.30;;
23346;SDS011;36852;45.466;11.066;2022-11-15T10:59:48;20.75;;;13.78;;
23346;SDS011;36852;45.466;11.066;2022-11-15T11:02:32;19.50;;;13.53;;
23346;SDS011;36852;45.466;11.066;2022-11-15T11:05:06;18.45;;;13.62;;
23346;SDS011;36852;45.466;11.066;2022-11-15T11:07:36;20.82;;;13.05;;
23346;SDS011;36852;45.466;11.066;2022-11-15T11:10:13;19.32;;;13.35;;
23346;SDS011;36852;45.466;11.066;2022-11-15T11:15:20;17.48;;;12.90;;
23346;SDS011;36852;45.466;11.066;2022-11-15T11:18:06;18.65;;;13.60;;
23346;SDS011;36852;45.466;11.066;2022-11-15T11:20:45;20.65;;;13.20;;
23346;SDS011;36852;45.466;11.066;2022-11-15T11:31:52;17.62;;;12.68;;
23346;SDS011;36852;45.466;11.066;2022-11-15T11:40:16;21.45;;;13.80;;
23346;SDS011;36852;45.466;11.066;2022-11-15T11:42:51;19.85;;;13.58;;
23346;SDS011;36852;45.466;11.066;2022-11-15T11:45:49;16.67;;;13.00;;
23346;SDS011;36852;45.466;11.066;2022-11-15T11:50:50;48.58;;;29.70;;
23346;SDS011;36852;45.466;11.066;2022-11-15T11:53:35;24.65;;;16.10;;
23346;SDS011;36852;45.466;11.066;2022-11-15T11:56:16;16.15;;;12.10;;
23346;SDS011;36852;45.466;11.066;2022-11-15T11:58:50;17.35;;;12.18;;
23346;SDS011;36852;45.466;11.066;2022-11-15T12:04:18;18.92;;;11.80;;
23346;SDS011;36852;45.466;11.066;2022-11-15T12:15:00;33.65;;;21.95;;
23346;SDS011;36852;45.466;11.066;2022-11-15T12:17:39;19.00;;;12.78;;
23346;SDS011;36852;45.466;11.066;2022-11-15T12:22:52;20.95;;;15.13;;
23346;SDS011;36852;45.466;11.066;2022-11-15T12:28:01;19.05;;;13.75;;
23346;SDS011;36852;45.466;11.066;2022-11-15T12:30:59;20.57;;;14.38;;
23346;SDS011;36852;45.466;11.066;2022-11-15T12:36:08;19.55;;;14.28;;
23346;SDS011;36852;45.466;11.066;2022-11-15T12:41:37;26.73;;;18.45;;
23346;SDS011;36852;45.466;11.066;2022-11-15T12:44:09;27.98;;;19.77;;
23346;SDS011;36852;45.466;11.066;2022-11-15T13:02:23;20.95;;;15.68;;
23346;SDS011;36852;45.466;11.066;2022-11-15T13:05:19;27.80;;;18.77;;
23346;SDS011;36852;45.466;11.066;2022-11-15T13:12:58;27.62;;;19.30;;
23346;SDS011;36852;45.466;11.066;2022-11-15T13:18:37;28.40;;;18.30;;
23346;SDS011;36852;45.466;11.066;2022-11-15T13:21:25;27.17;;;18.75;;
23346;SDS011;36852;45.466;11.066;2022-11-15T13:23:59;27.77;;;17.65;;
23346;SDS011;36852;45.466;11.066;2022-11-15T13:26:28;24.10;;;17.17;;
23346;SDS011;36852;45.466;11.066;2022-11-15T13:28:56;27.02;;;18.50;;
23346;SDS011;36852;45.466;11.066;2022-11-15T13:31:28;25.52;;;17.92;;
23346;SDS011;36852;45.466;11.066;2022-11-15T13:34:15;26.52;;;18.60;;
23346;SDS011;36852;45.466;11.066;2022-11-15T13:36:34;26.42;;;17.45;;
23346;SDS011;36852;45.466;11.066;2022-11-15T13:39:04;25.12;;;17.70;;
23346;SDS011;36852;45.466;11.066;2022-11-15T13:41:35;25.15;;;18.30;;
23346;SDS011;36852;45.466;11.066;2022-11-15T13:44:17;29.70;;;20.30;;
23346;SDS011;36852;45.466;11.066;2022-11-15T13:46:36;35.85;;;21.37;;
23346;SDS011;36852;45.466;11.066;2022-11-15T13:49:07;33.80;;;21.77;;
23346;SDS011;36852;45.466;11.066;2022-11-15T13:51:51;30.57;;;22.25;;
23346;SDS011;36852;45.466;11.066;2022-11-15T13:54:55;29.20;;;20.45;;
23346;SDS011;36852;45.466;11.066;2022-11-15T13:57:00;28.60;;;20.12;;
23346;SDS011;36852;45.466;11.066;2022-11-15T13:59:31;28.20;;;19.25;;
23346;SDS011;36852;45.466;11.066;2022-11-15T14:02:03;28.87;;;18.48;;
23346;SDS011;36852;45.466;11.066;2022-11-15T14:04:50;31.50;;;19.42;;
23346;SDS011;36852;45.466;11.066;2022-11-15T14:07:25;31.70;;;20.27;;
23346;SDS011;36852;45.466;11.066;2022-11-15T14:09:55;31.45;;;19.17;;
23346;SDS011;36852;45.466;11.066;2022-11-15T14:12:30;30.90;;;20.12;;
23346;SDS011;36852;45.466;11.066;2022-11-15T14:15:24;30.43;;;19.07;;
23346;SDS011;36852;45.466;11.066;2022-11-15T14:17:59;24.80;;;17.23;;
23346;SDS011;36852;45.466;11.066;2022-11-15T14:23:00;27.48;;;19.48;;
23346;SDS011;36852;45.466;11.066;2022-11-15T14:25:37;25.25;;;18.17;;
23346;SDS011;36852;45.466;11.066;2022-11-15T14:30:53;30.77;;;19.62;;
23346;SDS011;36852;45.466;11.066;2022-11-15T14:36:10;30.17;;;20.00;;
23346;SDS011;36852;45.466;11.066;2022-11-15T14:38:40;27.82;;;19.07;;
23346;SDS011;36852;45.466;11.066;2022-11-15T14:43:50;31.95;;;19.42;;
23346;SDS011;36852;45.466;11.066;2022-11-15T14:46:19;25.25;;;18.73;;
23346;SDS011;36852;45.466;11.066;2022-11-15T14:48:47;26.10;;;17.70;;
23346;SDS011;36852;45.466;11.066;2022-11-15T14:51:16;28.07;;;18.12;;
23346;SDS011;36852;45.466;11.066;2022-11-15T14:53:45;22.93;;;17.02;;
23346;SDS011;36852;45.466;11.066;2022-11-15T14:56:13;28.20;;;18.82;;
23346;SDS011;36852;45.466;11.066;2022-11-15T14:58:42;30.55;;;18.90;;
23346;SDS011;36852;45.466;11.066;2022-11-15T15:01:25;24.80;;;18.05;;
23346;SDS011;36852;45.466;11.066;2022-11-15T15:03:59;30.50;;;19.40;;
23346;SDS011;36852;45.466;11.066;2022-11-15T15:06:27;34.78;;;21.30;;
23346;SDS011;36852;45.466;11.066;2022-11-15T15:08:55;32.20;;;20.95;;
23346;SDS011;36852;45.466;11.066;2022-11-15T15:11:29;31.50;;;19.27;;
23346;SDS011;36852;45.466;11.066;2022-11-15T15:13:56;31.85;;;20.10;;
23346;SDS011;36852;45.466;11.066;2022-11-15T15:16:27;30.45;;;20.15;;
23346;SDS011;36852;45.466;11.066;2022-11-15T15:18:54;80.17;;;49.88;;
23346;SDS011;36852;45.466;11.066;2022-11-15T15:21:23;37.08;;;25.05;;
23346;SDS011;36852;45.466;11.066;2022-11-15T15:23:54;33.73;;;20.35;;
23346;SDS011;36852;45.466;11.066;2022-11-15T15:26:22;26.52;;;17.85;;
23346;SDS011;36852;45.466;11.066;2022-11-15T15:28:50;30.82;;;18.45;;
23346;SDS011;36852;45.466;11.066;2022-11-15T15:31:18;23.75;;;17.42;;
23346;SDS011;36852;45.466;11.066;2022-11-15T15:33:46;30.35;;;17.40;;
23346;SDS011;36852;45.466;11.066;2022-11-15T15:36:16;27.60;;;17.02;;
23346;SDS011;36852;45.466;11.066;2022-11-15T15:38:45;27.02;;;17.52;;
23346;SDS011;36852;45.466;11.066;2022-11-15T15:41:14;28.62;;;17.23;;
23346;SDS011;36852;45.466;11.066;2022-11-15T15:43:43;26.17;;;16.95;;
23346;SDS011;36852;45.466;11.066;2022-11-15T15:46:11;25.32;;;16.82;;
23346;SDS011;36852;45.466;11.066;2022-11-15T15:48:41;26.70;;;16.62;;
23346;SDS011;36852;45.466;11.066;2022-11-15T15:51:11;26.82;;;17.45;;
23346;SDS011;36852;45.466;11.066;2022-11-15T15:53:41;25.72;;;16.48;;
23346;SDS011;36852;45.466;11.066;2022-11-15T15:56:13;25.12;;;16.90;;
23346;SDS011;36852;45.466;11.066;2022-11-15T15:58:41;25.88;;;17.77;;
23346;SDS011;36852;45.466;11.066;2022-11-15T16:01:09;28.02;;;18.75;;
23346;SDS011;36852;45.466;11.066;2022-11-15T16:03:37;28.92;;;19.57;;
23346;SDS011;36852;45.466;11.066;2022-11-15T16:06:22;34.20;;;21.87;;
23346;SDS011;36852;45.466;11.066;2022-11-15T16:08:37;34.50;;;22.35;;
23346;SDS011;36852;45.466;11.066;2022-11-15T16:11:07;31.02;;;20.08;;
23346;SDS011;36852;45.466;11.066;2022-11-15T16:13:36;33.00;;;21.68;;
23346;SDS011;36852;45.466;11.066;2022-11-15T16:16:04;34.00;;;22.02;;
23346;SDS011;36852;45.466;11.066;2022-11-15T16:18:34;34.63;;;21.33;;
23346;SDS011;36852;45.466;11.066;2022-11-15T16:21:03;31.70;;;20.43;;
23346;SDS011;36852;45.466;11.066;2022-11-15T16:23:32;29.23;;;19.70;;
23346;SDS011;36852;45.466;11.066;2022-11-15T16:25:59;31.87;;;20.45;;
23346;SDS011;36852;45.466;11.066;2022-11-15T16:28:30;32.63;;;21.68;;
23346;SDS011;36852;45.466;11.066;2022-11-15T16:31:04;31.50;;;22.07;;
23346;SDS011;36852;45.466;11.066;2022-11-15T16:33:33;37.65;;;25.05;;
23346;SDS011;36852;45.466;11.066;2022-11-15T16:36:02;28.52;;;19.77;;
23346;SDS011;36852;45.466;11.066;2022-11-15T16:38:31;33.05;;;20.70;;
23346;SDS011;36852;45.466;11.066;2022-11-15T16:41:00;36.30;;;23.35;;
23346;SDS011;36852;45.466;11.066;2022-11-15T16:43:28;42.65;;;25.60;;
23346;SDS011;36852;45.466;11.066;2022-11-15T16:45:56;37.93;;;25.43;;
23346;SDS011;36852;45.466;11.066;2022-11-15T16:48:25;35.73;;;24.50;;
23346;SDS011;36852;45.466;11.066;2022-11-15T16:50:54;35.80;;;23.95;;
23346;SDS011;36852;45.466;11.066;2022-11-15T16:53:23;37.50;;;25.08;;
23346;SDS011;36852;45.466;11.066;2022-11-15T16:55:54;37.15;;;23.95;;
23346;SDS011;36852;45.466;11.066;2022-11-15T16:58:22;42.98;;;29.67;;
23346;SDS011;36852;45.466;11.066;2022-11-15T17:00:51;39.42;;;28.12;;
23346;SDS011;36852;45.466;11.066;2022-11-15T17:03:20;41.25;;;27.62;;
23346;SDS011;36852;45.466;11.066;2022-11-15T17:05:50;43.65;;;26.12;;
23346;SDS011;36852;45.466;11.066;2022-11-15T17:08:18;34.83;;;23.40;;
23346;SDS011;36852;45.466;11.066;2022-11-15T17:10:48;30.35;;;20.27;;
23346;SDS011;36852;45.466;11.066;2022-11-15T17:13:19;27.32;;;19.95;;
23346;SDS011;36852;45.466;11.066;2022-11-15T17:15:47;30.05;;;21.42;;
23346;SDS011;36852;45.466;11.066;2022-11-15T17:18:16;31.48;;;21.37;;
23346;SDS011;36852;45.466;11.066;2022-11-15T17:20:43;32.03;;;20.25;;
23346;SDS011;36852;45.466;11.066;2022-11-15T17:23:11;31.90;;;20.50;;
23346;SDS011;36852;45.466;11.066;2022-11-15T17:25:41;27.95;;;20.00;;
23346;SDS011;36852;45.466;11.066;2022-11-15T17:28:09;28.35;;;20.30;;
23346;SDS011;36852;45.466;11.066;2022-11-15T17:30:41;33.75;;;22.05;;
23346;SDS011;36852;45.466;11.066;2022-11-15T17:33:09;34.70;;;21.25;;
23346;SDS011;36852;45.466;11.066;2022-11-15T17:35:37;33.00;;;21.45;;
23346;SDS011;36852;45.466;11.066;2022-11-15T17:38:06;35.03;;;24.60;;
23346;SDS011;36852;45.466;11.066;2022-11-15T17:40:35;36.00;;;24.98;;
23346;SDS011;36852;45.466;11.066;2022-11-15T17:43:04;34.63;;;23.85;;
23346;SDS011;36852;45.466;11.066;2022-11-15T17:45:32;34.55;;;23.95;;
23346;SDS011;36852;45.466;11.066;2022-11-15T17:48:02;39.45;;;26.25;;
23346;SDS011;36852;45.466;11.066;2022-11-15T17:50:31;35.68;;;24.20;;
23346;SDS011;36852;45.466;11.066;2022-11-15T17:52:59;36.33;;;24.07;;
23346;SDS011;36852;45.466;11.066;2022-11-15T17:55:27;42.08;;;26.62;;
23346;SDS011;36852;45.466;11.066;2022-11-15T17:57:55;43.40;;;28.83;;
23346;SDS011;36852;45.466;11.066;2022-11-15T18:00:24;43.05;;;28.67;;
23346;SDS011;36852;45.466;11.066;2022-11-15T18:02:52;46.40;;;28.55;;
23346;SDS011;36852;45.466;11.066;2022-11-15T18:05:19;45.75;;;28.80;;
23346;SDS011;36852;45.466;11.066;2022-11-15T18:07:47;39.03;;;26.23;;
23346;SDS011;36852;45.466;11.066;2022-11-15T18:10:15;40.03;;;26.35;;
23346;SDS011;36852;45.466;11.066;2022-11-15T18:12:43;38.30;;;24.60;;
23346;SDS011;36852;45.466;11.066;2022-11-15T18:15:14;34.50;;;25.00;;
23346;SDS011;36852;45.466;11.066;2022-11-15T18:17:42;37.93;;;25.80;;
23346;SDS011;36852;45.466;11.066;2022-11-15T18:20:10;39.42;;;25.45;;
23346;SDS011;36852;45.466;11.066;2022-11-15T18:22:38;39.78;;;26.35;;
23346;SDS011;36852;45.466;11.066;2022-11-15T18:25:06;40.23;;;26.87;;